createdAt,value
2017-08-14T00:01:20.642Z,5.97
2017-08-14T00:03:48.714Z,6.57
2017-08-14T00:06:16.806Z,5.57
2017-08-14T00:08:45.667Z,4.95
2017-08-14T00:11:13.786Z,5.75
2017-08-14T00:13:41.857Z,5.85
2017-08-14T00:16:10.698Z,5.70
2017-08-14T00:18:38.799Z,5.50
2017-08-14T00:21:07.657Z,5.85
2017-08-14T00:23:36.159Z,5.87
2017-08-14T00:26:04.235Z,5.75
2017-08-14T00:28:32.302Z,5.90
2017-08-14T00:31:00.407Z,5.62
2017-08-14T00:33:29.247Z,5.80
2017-08-14T00:35:57.322Z,6.30
2017-08-14T00:38:25.811Z,5.87
2017-08-14T00:40:53.887Z,5.78
2017-08-14T00:43:22.032Z,5.45
2017-08-14T00:45:50.831Z,5.53
2017-08-14T00:48:18.935Z,5.75
2017-08-14T00:50:47.774Z,6.35
2017-08-14T00:53:15.855Z,6.28
2017-08-14T00:55:44.359Z,5.90
2017-08-14T00:58:12.427Z,5.25
2017-08-14T01:00:40.503Z,6.37
2017-08-14T01:03:08.602Z,5.32
2017-08-14T01:05:37.077Z,6.28
2017-08-14T01:08:05.186Z,6.37
2017-08-14T01:10:33.263Z,6.50
2017-08-14T01:13:01.334Z,6.15
2017-08-14T01:15:29.446Z,5.22
2017-08-14T01:17:57.919Z,6.18
2017-08-14T01:20:26.390Z,6.20
2017-08-14T01:22:54.493Z,6.30
2017-08-14T01:25:22.586Z,5.20
2017-08-14T01:27:51.430Z,6.12
2017-08-14T01:30:19.555Z,5.50
2017-08-14T01:32:48.390Z,5.78
2017-08-14T01:35:16.466Z,5.75
2017-08-14T01:37:44.570Z,6.45
2017-08-14T01:40:12.647Z,6.50
2017-08-14T01:42:42.122Z,5.65
2017-08-14T01:45:10.219Z,6.15
2017-08-14T01:47:39.104Z,5.45
2017-08-14T01:50:07.185Z,6.80
2017-08-14T01:52:35.263Z,5.05
2017-08-14T01:55:04.123Z,6.07
2017-08-14T01:57:32.224Z,5.37
2017-08-14T02:00:01.069Z,5.80
2017-08-14T02:02:29.170Z,5.60
2017-08-14T02:04:57.279Z,6.12
2017-08-14T02:07:25.746Z,5.72
2017-08-14T02:09:54.215Z,5.72
2017-08-14T02:12:23.084Z,5.70
2017-08-14T02:14:51.159Z,5.07
2017-08-14T02:17:19.257Z,5.68
2017-08-14T02:19:48.106Z,6.50
2017-08-14T02:22:16.600Z,6.20
2017-08-14T02:24:44.696Z,5.55
2017-08-14T02:27:13.539Z,5.53
2017-08-14T02:29:41.639Z,5.45
2017-08-14T02:32:09.716Z,6.00
2017-08-14T02:34:39.174Z,5.70
2017-08-14T02:37:07.212Z,5.80
2017-08-14T02:39:36.053Z,5.85
2017-08-14T02:42:04.919Z,5.07
2017-08-14T02:44:32.991Z,5.30
2017-08-14T02:47:01.095Z,5.20
2017-08-14T02:49:29.203Z,6.10
2017-08-14T02:51:57.276Z,5.55
2017-08-14T02:54:25.751Z,5.45
2017-08-14T02:56:53.854Z,5.18
2017-08-14T02:59:22.331Z,5.43
2017-08-14T03:01:50.411Z,5.62
2017-08-14T03:04:18.528Z,5.50
2017-08-14T03:06:47.378Z,5.72
2017-08-14T03:09:15.843Z,5.87
2017-08-14T03:11:44.713Z,4.75
2017-08-14T03:14:12.794Z,6.10
2017-08-14T03:16:41.659Z,5.68
2017-08-14T03:19:09.739Z,5.35
2017-08-14T03:21:37.847Z,5.78
2017-08-14T03:24:06.320Z,4.53
2017-08-14T03:26:35.256Z,5.97
2017-08-14T03:29:03.319Z,5.07
2017-08-14T03:31:31.399Z,4.93
2017-08-14T03:33:59.500Z,5.00
2017-08-14T03:36:27.598Z,5.55
2017-08-14T03:38:56.067Z,5.37
2017-08-14T03:41:24.935Z,4.40
2017-08-14T03:43:53.016Z,4.57
2017-08-14T03:46:21.106Z,5.37
2017-08-14T03:48:49.687Z,4.45
2017-08-14T03:51:18.535Z,4.40
2017-08-14T03:53:46.615Z,5.50
2017-08-14T03:56:14.711Z,5.25
2017-08-14T03:58:42.795Z,4.78
2017-08-14T04:01:10.895Z,5.05
2017-08-14T04:03:39.375Z,5.18
2017-08-14T04:06:07.460Z,5.50
2017-08-14T04:08:35.548Z,5.75
2017-08-14T04:11:03.618Z,4.87
2017-08-14T04:13:32.479Z,5.32
2017-08-14T04:16:00.554Z,5.40
2017-08-14T04:18:29.046Z,5.20
2017-08-14T04:20:57.128Z,5.70
2017-08-14T04:23:25.230Z,5.40
2017-08-14T04:25:53.351Z,6.00
2017-08-14T04:28:21.418Z,5.22
2017-08-14T04:30:50.259Z,5.05
2017-08-14T04:33:18.828Z,5.45
2017-08-14T04:35:47.631Z,5.93
2017-08-14T04:38:15.708Z,5.12
2017-08-14T04:40:44.203Z,5.68
2017-08-14T04:43:12.299Z,5.50
2017-08-14T04:45:41.143Z,5.00
2017-08-14T04:48:09.258Z,5.60
2017-08-14T04:50:38.111Z,6.45
2017-08-14T04:53:06.186Z,5.97
2017-08-14T04:55:34.281Z,6.10
2017-08-14T04:58:03.124Z,6.97
2017-08-14T05:00:31.223Z,5.60
2017-08-14T05:02:59.295Z,5.62
2017-08-14T05:05:28.268Z,5.62
2017-08-14T05:07:56.331Z,5.85
2017-08-14T05:10:24.411Z,5.93
2017-08-14T05:12:52.508Z,7.25
2017-08-14T05:15:20.587Z,6.60
2017-08-14T05:17:48.683Z,6.65
2017-08-14T05:20:17.527Z,6.87
2017-08-14T05:22:45.626Z,6.43
2017-08-14T05:25:13.716Z,6.45
2017-08-14T05:27:42.558Z,6.85
2017-08-14T05:30:10.659Z,5.85
2017-08-14T05:32:38.740Z,6.78
2017-08-14T05:35:06.811Z,6.37
2017-08-14T05:37:34.906Z,6.57
2017-08-14T05:40:03.011Z,5.45
2017-08-14T05:42:31.092Z,6.43
2017-08-14T05:44:59.191Z,5.97
2017-08-14T05:47:27.286Z,8.07
2017-08-14T05:49:56.135Z,5.40
2017-08-14T05:52:24.243Z,6.30
2017-08-14T05:54:53.092Z,6.70
2017-08-14T05:57:21.175Z,6.97
2017-08-14T05:59:49.287Z,7.05
2017-08-14T06:02:17.777Z,6.78
2017-08-14T06:04:46.610Z,7.40
2017-08-14T06:07:14.713Z,6.72
2017-08-14T06:09:43.191Z,6.65
2017-08-14T06:12:11.296Z,6.55
2017-08-14T06:14:39.370Z,6.70
2017-08-14T06:17:07.451Z,5.82
2017-08-14T06:19:35.571Z,5.93
2017-08-14T06:22:03.646Z,5.78
2017-08-14T06:24:31.722Z,6.90
2017-08-14T06:26:59.821Z,6.43
2017-08-14T06:29:28.688Z,6.72
2017-08-14T06:31:56.762Z,6.15
2017-08-14T06:34:25.274Z,7.22
2017-08-14T06:36:53.350Z,6.05
2017-08-14T06:39:21.433Z,6.03
2017-08-14T06:41:49.931Z,5.80
2017-08-14T06:44:18.011Z,5.60
2017-08-14T06:46:46.103Z,5.50
2017-08-14T06:49:14.185Z,5.80
2017-08-14T06:51:42.700Z,4.78
2017-08-14T06:54:10.780Z,5.07
2017-08-14T06:56:38.863Z,5.07
2017-08-14T06:59:06.963Z,4.75
2017-08-14T07:01:35.430Z,4.60
2017-08-14T07:04:03.526Z,4.72
2017-08-14T07:06:32.004Z,4.30
2017-08-14T07:09:00.084Z,4.22
2017-08-14T07:11:28.183Z,4.30
2017-08-14T07:13:57.028Z,5.03
2017-08-14T07:16:25.908Z,4.93
2017-08-14T07:18:53.983Z,4.75
2017-08-14T07:21:22.459Z,4.07
2017-08-14T07:23:50.550Z,5.12
2017-08-14T07:26:18.631Z,4.12
2017-08-14T07:28:46.739Z,4.00
2017-08-14T07:31:14.820Z,4.60
2017-08-14T07:33:42.903Z,4.87
2017-08-14T07:36:10.998Z,4.60
2017-08-14T07:38:39.100Z,4.62
2017-08-14T07:41:07.179Z,4.22
2017-08-14T07:43:35.279Z,5.22
2017-08-14T07:46:03.371Z,3.95
2017-08-14T07:48:31.452Z,4.25
2017-08-14T07:50:59.556Z,4.80
2017-08-14T07:53:27.635Z,4.57
2017-08-14T07:55:56.131Z,3.92
2017-08-14T07:58:24.975Z,4.03
2017-08-14T08:00:53.079Z,3.62
2017-08-14T08:03:21.218Z,4.40
2017-08-14T08:05:49.260Z,3.78
2017-08-14T08:08:17.375Z,3.87
2017-08-14T08:10:45.452Z,4.70
2017-08-14T08:13:13.531Z,4.40
2017-08-14T08:15:41.666Z,5.15
2017-08-14T08:18:09.751Z,4.30
2017-08-14T08:20:37.823Z,4.43
2017-08-14T08:23:05.927Z,3.95
2017-08-14T08:25:34.069Z,3.65
2017-08-14T08:28:02.875Z,3.83
2017-08-14T08:30:30.980Z,4.43
2017-08-14T08:32:59.821Z,3.97
2017-08-14T08:35:27.923Z,4.25
2017-08-14T08:37:56.022Z,4.43
2017-08-14T08:40:24.499Z,4.00
2017-08-14T08:42:53.382Z,3.80
2017-08-14T08:45:22.228Z,3.75
2017-08-14T08:47:50.695Z,4.20
2017-08-14T08:50:18.796Z,3.50
2017-08-14T08:52:47.276Z,3.90
2017-08-14T08:55:16.189Z,3.92
2017-08-14T08:57:44.656Z,4.12
2017-08-14T09:00:12.736Z,3.70
2017-08-14T09:02:40.831Z,3.90
2017-08-14T09:05:09.712Z,3.45
2017-08-14T09:07:37.797Z,3.40
2017-08-14T09:10:06.640Z,3.47
2017-08-14T09:12:34.744Z,3.72
2017-08-14T09:15:03.240Z,3.50
2017-08-14T09:17:31.719Z,3.87
2017-08-14T09:20:00.584Z,3.70
2017-08-14T09:22:29.064Z,3.50
2017-08-14T09:24:57.171Z,4.10
2017-08-14T09:27:25.638Z,3.85
2017-08-14T09:29:54.490Z,3.10
2017-08-14T09:32:22.591Z,3.42
2017-08-14T09:34:50.668Z,4.00
2017-08-14T09:37:18.776Z,4.05
2017-08-14T09:39:46.852Z,3.92
2017-08-14T09:42:14.947Z,4.00
2017-08-14T09:44:43.028Z,4.20
2017-08-14T09:47:11.535Z,3.45
2017-08-14T09:49:39.636Z,3.20
2017-08-14T09:52:08.096Z,3.50
2017-08-14T09:54:36.198Z,3.83
2017-08-14T09:57:04.296Z,3.70
2017-08-14T09:59:32.772Z,3.75
2017-08-14T10:02:01.279Z,3.22
2017-08-14T10:04:29.361Z,3.25
2017-08-14T10:06:57.840Z,3.10
2017-08-14T10:09:25.940Z,3.45
2017-08-14T10:11:54.407Z,3.22
2017-08-14T10:14:22.908Z,3.20
2017-08-14T10:16:51.420Z,2.92
2017-08-14T10:19:19.504Z,3.20
2017-08-14T10:21:47.584Z,3.45
2017-08-14T10:24:15.754Z,3.30
2017-08-14T10:26:44.207Z,3.17
2017-08-14T10:29:12.292Z,2.40
2017-08-14T10:31:40.403Z,2.65
2017-08-14T10:34:08.478Z,3.37
2017-08-14T10:36:36.560Z,2.78
2017-08-14T10:39:04.658Z,2.60
2017-08-14T10:41:33.495Z,2.53
2017-08-14T10:44:01.608Z,2.78
2017-08-14T10:46:30.550Z,2.42
2017-08-14T10:48:58.593Z,2.45
2017-08-14T10:51:26.692Z,2.90
2017-08-14T10:53:54.767Z,2.62
2017-08-14T10:56:22.838Z,2.97
2017-08-14T10:58:50.951Z,2.72
2017-08-14T11:01:19.026Z,2.80
2017-08-14T11:03:47.872Z,2.60
2017-08-14T11:06:15.972Z,3.40
2017-08-14T11:08:45.550Z,3.35
2017-08-14T11:11:13.672Z,2.90
2017-08-14T11:13:42.258Z,2.95
2017-08-14T11:16:10.251Z,2.20
2017-08-14T11:18:38.351Z,2.87
2017-08-14T11:21:06.464Z,2.58
2017-08-14T11:23:35.418Z,2.67
2017-08-14T11:26:03.461Z,2.60
2017-08-14T11:28:31.563Z,2.37
2017-08-14T11:30:59.639Z,2.33
2017-08-14T11:33:28.522Z,2.20
2017-08-14T11:35:56.594Z,2.25
2017-08-14T11:38:24.680Z,1.83
2017-08-14T11:40:52.759Z,2.45
2017-08-14T11:43:21.322Z,2.00
2017-08-14T11:45:49.388Z,2.40
2017-08-14T11:48:17.534Z,2.00
2017-08-14T11:50:45.607Z,1.80
2017-08-14T11:53:13.684Z,2.80
2017-08-14T11:55:41.779Z,1.90
2017-08-14T11:58:09.863Z,2.35
2017-08-14T12:00:37.972Z,2.45
2017-08-14T12:03:06.857Z,2.00
2017-08-14T12:05:34.936Z,2.60
2017-08-14T12:08:03.427Z,3.05
2017-08-14T12:10:32.276Z,2.78
2017-08-14T12:13:00.380Z,2.67
2017-08-14T12:15:29.232Z,2.92
2017-08-14T12:17:57.347Z,2.65
2017-08-14T12:20:26.195Z,4.05
2017-08-14T12:22:54.363Z,2.70
2017-08-14T12:25:22.820Z,1.95
2017-08-14T12:27:50.899Z,2.90
2017-08-14T12:30:19.091Z,2.33
2017-08-14T12:32:47.155Z,2.50
2017-08-14T12:35:15.271Z,2.75
2017-08-14T12:37:43.751Z,2.22
2017-08-14T12:40:11.822Z,2.05
2017-08-14T12:42:39.938Z,3.60
2017-08-14T12:45:08.008Z,2.62
2017-08-14T12:47:36.618Z,2.70
2017-08-14T12:50:04.654Z,2.50
2017-08-14T12:52:33.131Z,4.65
2017-08-14T12:55:02.014Z,3.42
2017-08-14T12:57:30.855Z,3.15
2017-08-14T12:59:58.927Z,2.83
2017-08-14T13:02:27.033Z,2.30
2017-08-14T13:04:55.499Z,2.33
2017-08-14T13:07:23.615Z,2.80
2017-08-14T13:09:51.696Z,2.40
2017-08-14T13:12:19.767Z,2.62
2017-08-14T13:14:47.875Z,2.30
2017-08-14T13:17:15.956Z,2.25
2017-08-14T13:19:44.067Z,2.50
2017-08-14T13:22:12.911Z,2.85
2017-08-14T13:24:41.012Z,2.55
2017-08-14T13:27:09.086Z,2.78
2017-08-14T13:29:37.936Z,2.42
2017-08-14T13:32:06.035Z,2.60
2017-08-14T13:34:34.110Z,2.20
2017-08-14T13:37:02.207Z,2.60
2017-08-14T13:39:31.088Z,3.17
2017-08-14T13:41:59.946Z,3.15
2017-08-14T13:44:28.032Z,3.00
2017-08-14T13:46:56.143Z,2.75
2017-08-14T13:49:24.226Z,2.35
2017-08-14T13:51:52.307Z,2.90
2017-08-14T13:54:20.407Z,3.12
2017-08-14T13:56:48.484Z,2.70
2017-08-14T13:59:16.588Z,2.35
2017-08-14T14:01:45.439Z,2.28
2017-08-14T14:04:13.567Z,2.75
2017-08-14T14:06:42.040Z,2.72
2017-08-14T14:09:10.878Z,2.17
2017-08-14T14:11:38.980Z,2.72
2017-08-14T14:14:07.455Z,2.28
2017-08-14T14:16:35.547Z,2.22
2017-08-14T14:19:04.050Z,2.30
2017-08-14T14:21:32.154Z,2.33
2017-08-14T14:24:00.220Z,1.60
2017-08-14T14:26:28.295Z,2.20
2017-08-14T14:28:56.399Z,2.20
2017-08-14T14:31:24.484Z,2.45
2017-08-14T14:33:52.563Z,1.75
2017-08-14T14:36:21.467Z,1.80
2017-08-14T14:38:50.302Z,1.70
2017-08-14T14:41:18.386Z,1.98
2017-08-14T14:43:46.542Z,1.80
2017-08-14T14:46:15.435Z,2.25
2017-08-14T14:48:43.867Z,2.40
2017-08-14T14:51:12.747Z,1.90
2017-08-14T14:53:41.231Z,1.95
2017-08-14T14:56:10.070Z,1.75
2017-08-14T14:58:38.476Z,1.92
2017-08-14T15:01:06.550Z,1.48
2017-08-14T15:03:34.632Z,1.83
2017-08-14T15:06:02.731Z,1.95
2017-08-14T15:08:31.575Z,3.10
2017-08-14T15:10:59.691Z,1.70
2017-08-14T15:13:28.628Z,2.00
2017-08-14T15:15:56.662Z,1.80
2017-08-14T15:18:24.763Z,1.55
2017-08-14T15:20:52.858Z,1.50
2017-08-14T15:23:20.935Z,1.60
2017-08-14T15:25:49.051Z,1.80
2017-08-14T15:28:17.896Z,1.90
2017-08-14T15:30:45.963Z,2.40
2017-08-14T15:33:14.124Z,3.00
2017-08-14T15:35:42.299Z,2.00
2017-08-14T15:38:10.369Z,2.25
2017-08-14T15:40:38.415Z,2.00
2017-08-14T15:43:06.519Z,2.03
2017-08-14T15:45:34.599Z,2.08
2017-08-14T15:48:02.675Z,1.95
2017-08-14T15:50:30.771Z,2.15
2017-08-14T15:52:59.611Z,2.42
2017-08-14T15:55:27.730Z,2.28
2017-08-14T15:57:55.807Z,2.03
2017-08-14T16:00:23.911Z,3.00
2017-08-14T16:02:51.995Z,2.50
2017-08-14T16:05:20.512Z,2.83
2017-08-14T16:07:48.596Z,4.00
2017-08-14T16:10:16.670Z,2.28
2017-08-14T16:12:44.820Z,2.15
2017-08-14T16:15:13.290Z,2.10
2017-08-14T16:17:41.767Z,1.95
2017-08-14T16:20:10.271Z,2.30
2017-08-14T16:22:38.351Z,1.77
2017-08-14T16:25:06.851Z,1.45
2017-08-14T16:27:35.690Z,2.10
2017-08-14T16:30:03.782Z,1.85
2017-08-14T16:32:31.865Z,1.70
2017-08-14T16:34:59.968Z,2.10
2017-08-14T16:37:28.830Z,1.67
2017-08-14T16:39:56.916Z,2.17
2017-08-14T16:42:25.014Z,1.60
2017-08-14T16:44:53.491Z,1.75
2017-08-14T16:47:21.563Z,1.60
2017-08-14T16:49:50.438Z,1.70
2017-08-14T16:52:19.289Z,1.77
2017-08-14T16:54:47.760Z,1.65
2017-08-14T16:57:15.867Z,2.00
2017-08-14T16:59:44.336Z,1.25
2017-08-14T17:02:12.815Z,2.03
2017-08-14T17:04:41.352Z,6.87
2017-08-14T17:07:09.436Z,9.18
2017-08-14T17:09:37.915Z,1.95
2017-08-14T17:12:06.022Z,1.90
2017-08-14T17:14:34.105Z,2.33
2017-08-14T17:17:02.580Z,1.87
2017-08-14T17:19:30.687Z,2.30
2017-08-14T17:21:59.158Z,1.75
2017-08-14T17:24:28.008Z,2.33
2017-08-14T17:26:56.110Z,1.90
2017-08-14T17:29:24.591Z,2.05
2017-08-14T17:31:52.693Z,1.40
2017-08-14T17:34:21.531Z,1.75
2017-08-14T17:36:49.655Z,1.60
2017-08-14T17:39:18.508Z,2.15
2017-08-14T17:41:46.579Z,1.45
2017-08-14T17:44:14.684Z,1.60
2017-08-14T17:46:43.553Z,2.10
2017-08-14T17:49:11.646Z,1.50
2017-08-14T17:51:40.495Z,1.40
2017-08-14T17:54:08.987Z,1.70
2017-08-14T17:56:37.859Z,1.85
2017-08-14T17:59:05.943Z,1.40
2017-08-14T18:01:34.042Z,1.35
2017-08-14T18:04:02.131Z,1.50
2017-08-14T18:06:30.990Z,1.85
2017-08-14T18:08:59.067Z,1.87
2017-08-14T18:11:27.171Z,1.75
2017-08-14T18:13:56.030Z,1.85
2017-08-14T18:16:24.151Z,1.60
2017-08-14T18:18:52.232Z,1.70
2017-08-14T18:21:20.702Z,2.12
2017-08-14T18:23:49.583Z,2.22
2017-08-14T18:26:18.050Z,1.87
2017-08-14T18:28:46.898Z,6.95
2017-08-14T18:31:14.999Z,6.50
2017-08-14T18:33:43.953Z,2.90
2017-08-14T18:36:11.986Z,2.75
2017-08-14T18:38:40.067Z,2.58
2017-08-14T18:41:08.271Z,2.55
2017-08-14T18:43:36.752Z,2.78
2017-08-14T18:46:04.824Z,2.08
2017-08-14T18:48:32.924Z,2.42
2017-08-14T18:51:01.000Z,2.35
2017-08-14T18:53:29.965Z,2.47
2017-08-14T18:55:58.010Z,1.80
2017-08-14T18:58:26.112Z,2.47
2017-08-14T19:00:54.182Z,2.40
2017-08-14T19:03:22.351Z,2.53
2017-08-14T19:05:51.240Z,3.28
2017-08-14T19:08:21.120Z,3.25
2017-08-14T19:10:47.422Z,2.80
2017-08-14T19:13:15.504Z,3.33
2017-08-14T19:15:44.000Z,2.60
2017-08-14T19:18:12.474Z,4.10
2017-08-14T19:20:41.334Z,5.80
2017-08-14T19:23:09.422Z,2.60
2017-08-14T19:25:37.915Z,3.28
2017-08-14T19:28:06.756Z,3.92
2017-08-14T19:30:35.274Z,2.80
2017-08-14T19:33:03.352Z,2.97
2017-08-14T19:35:31.423Z,3.28
2017-08-14T19:37:59.543Z,3.37
2017-08-14T19:40:27.619Z,2.80
2017-08-14T19:42:55.694Z,2.87
2017-08-14T19:45:24.283Z,2.28
2017-08-14T19:47:52.726Z,3.00
2017-08-14T19:50:21.570Z,3.10
2017-08-14T19:52:49.667Z,2.30
2017-08-14T19:55:18.515Z,3.00
2017-08-14T19:57:46.631Z,2.78
2017-08-14T20:00:15.471Z,2.95
2017-08-14T20:02:43.547Z,2.25
2017-08-14T20:05:11.656Z,2.83
2017-08-14T20:07:40.207Z,2.67
2017-08-14T20:10:08.296Z,2.28
2017-08-14T20:12:37.140Z,2.53
2017-08-14T20:15:05.615Z,4.47
2017-08-14T20:17:33.720Z,3.25
2017-08-14T20:20:02.564Z,4.05
2017-08-14T20:22:31.431Z,3.50
2017-08-14T20:25:00.315Z,2.35
2017-08-14T20:27:28.444Z,2.97
2017-08-14T20:29:56.523Z,3.42
2017-08-14T20:32:24.599Z,3.10
2017-08-14T20:34:52.717Z,2.85
2017-08-14T20:37:20.823Z,2.62
2017-08-14T20:39:48.919Z,3.70
2017-08-14T20:42:17.002Z,3.20
2017-08-14T20:44:45.094Z,3.60
2017-08-14T20:47:13.195Z,3.50
2017-08-14T20:49:41.695Z,2.65
2017-08-14T20:52:09.780Z,2.65
2017-08-14T20:54:37.863Z,2.65
2017-08-14T20:57:06.735Z,3.30
2017-08-14T20:59:34.829Z,2.80
2017-08-14T21:02:02.891Z,3.67
2017-08-14T21:04:30.987Z,2.67
2017-08-14T21:06:59.072Z,3.78
2017-08-14T21:09:27.167Z,2.90
2017-08-14T21:11:56.051Z,3.67
2017-08-14T21:14:24.131Z,2.55
2017-08-14T21:16:52.966Z,2.65
2017-08-14T21:19:21.072Z,2.42
2017-08-14T21:21:49.147Z,2.92
2017-08-14T21:24:17.222Z,2.90
2017-08-14T21:26:45.328Z,3.70
2017-08-14T21:29:13.413Z,2.20
2017-08-14T21:31:41.527Z,2.72
2017-08-14T21:34:09.612Z,2.70
2017-08-14T21:36:37.692Z,2.58
2017-08-14T21:39:05.786Z,3.25
2017-08-14T21:41:34.632Z,2.25
2017-08-14T21:44:02.801Z,2.62
2017-08-14T21:46:30.847Z,2.83
2017-08-14T21:48:58.924Z,2.45
2017-08-14T21:51:27.019Z,2.75
2017-08-14T21:53:55.140Z,2.72
2017-08-14T21:56:23.219Z,2.40
2017-08-14T21:58:51.291Z,2.30
2017-08-14T22:01:19.399Z,2.67
2017-08-14T22:03:47.476Z,2.30
2017-08-14T22:06:15.595Z,2.30
2017-08-14T22:08:44.440Z,2.15
2017-08-14T22:11:12.511Z,2.65
2017-08-14T22:13:40.620Z,2.15
2017-08-14T22:16:08.700Z,2.20
2017-08-14T22:18:36.774Z,2.78
2017-08-14T22:21:04.876Z,2.20
2017-08-14T22:23:32.971Z,2.22
2017-08-14T22:26:01.067Z,2.50
2017-08-14T22:28:29.538Z,2.08
2017-08-14T22:30:57.660Z,1.98
2017-08-14T22:33:25.739Z,2.58
2017-08-14T22:35:53.815Z,1.90
2017-08-14T22:38:21.916Z,2.40
2017-08-14T22:40:50.011Z,2.40
2017-08-14T22:43:18.087Z,2.20
2017-08-14T22:45:46.179Z,2.35
2017-08-14T22:48:15.052Z,2.65
2017-08-14T22:50:43.151Z,2.40
2017-08-14T22:53:11.231Z,2.60
2017-08-14T22:55:39.338Z,2.92
2017-08-14T22:58:07.415Z,2.03
2017-08-14T23:00:36.284Z,2.03
2017-08-14T23:03:04.354Z,2.00
2017-08-14T23:05:32.467Z,2.30
2017-08-14T23:08:00.939Z,2.30
2017-08-14T23:10:29.014Z,2.50
2017-08-14T23:12:57.514Z,2.50
2017-08-14T23:15:25.604Z,2.50
2017-08-14T23:17:54.439Z,1.95
2017-08-14T23:20:22.544Z,1.92
2017-08-14T23:22:50.621Z,2.05
2017-08-14T23:25:18.723Z,1.85
2017-08-14T23:27:46.803Z,2.10
2017-08-14T23:30:14.901Z,1.90
2017-08-14T23:32:42.999Z,1.70
2017-08-14T23:35:11.103Z,1.90
2017-08-14T23:37:39.947Z,2.00
2017-08-14T23:40:08.052Z,2.10
2017-08-14T23:42:36.132Z,1.80
2017-08-14T23:45:05.015Z,2.00
2017-08-14T23:47:33.859Z,2.40
2017-08-14T23:50:02.330Z,2.30
2017-08-14T23:52:30.426Z,1.90
2017-08-14T23:54:58.503Z,2.10
2017-08-14T23:57:26.603Z,2.25
2017-08-14T23:59:55.451Z,2.37
